Time;durP1;ratioP1;P1;durP2;ratioP2;P2;SDS_P1;SDS_P2;PMS_P1;PMS_P2;Temp;Humidity;BMP_temperature;BMP_pressure;BME280_temperature;BME280_humidity;BME280_pressure;Samples;Min_cycle;Max_cycle;Signal;HPM_P1;HPM_P2
2024/02/27 00:01:00;;;;;;;17.47;15.20;;;;;;;;;;5029727;28;20193;-56
2024/02/27 00:03:26;;;;;;;17.03;14.33;;;;;;;;;;5029508;28;20652;-57
2024/02/27 00:05:52;;;;;;;15.13;13.53;;;;;;;;;;5026854;28;20210;-57
2024/02/27 00:08:18;;;;;;;17.63;13.97;;;;;;;;;;5024278;28;20227;-57
2024/02/27 00:10:44;;;;;;;16.83;14.47;;;;;;;;;;5027255;28;20632;-56
2024/02/27 00:13:10;;;;;;;15.70;13.77;;;;;;;;;;5029165;28;20193;-56
2024/02/27 00:15:36;;;;;;;15.90;14.03;;;;;;;;;;5026978;28;20231;-59
2024/02/27 00:18:02;;;;;;;15.43;13.83;;;;;;;;;;5029486;28;20633;-59
2024/02/27 00:20:28;;;;;;;15.97;13.73;;;;;;;;;;5024258;28;20213;-59
2024/02/27 00:22:55;;;;;;;18.50;15.00;;;;;;;;;;5021092;28;20183;-60
2024/02/27 00:25:22;;;;;;;15.53;13.90;;;;;;;;;;5026012;28;20181;-60
2024/02/27 00:27:49;;;;;;;18.33;13.53;;;;;;;;;;5010806;28;20179;-60
2024/02/27 00:30:15;;;;;;;16.00;13.63;;;;;;;;;;5026274;28;20173;-60
2024/02/27 00:32:41;;;;;;;16.17;13.77;;;;;;;;;;5018996;28;20240;-58
2024/02/27 00:35:08;;;;;;;15.87;14.17;;;;;;;;;;5026800;28;20296;-59
2024/02/27 00:37:34;;;;;;;16.37;13.90;;;;;;;;;;5018427;28;20186;-58
2024/02/27 00:40:00;;;;;;;17.30;13.77;;;;;;;;;;5013100;28;20244;-59
2024/02/27 00:42:26;;;;;;;16.33;13.93;;;;;;;;;;5028144;28;20584;-59
2024/02/27 00:44:52;;;;;;;16.07;12.80;;;;;;;;;;5024691;28;20227;-59
2024/02/27 00:47:18;;;;;;;15.17;13.57;;;;;;;;;;5027319;28;20689;-58
2024/02/27 00:49:44;;;;;;;16.80;15.00;;;;;;;;;;5028226;28;20196;-59
2024/02/27 00:52:10;;;;;;;15.07;13.40;;;;;;;;;;5016003;28;20644;-59
2024/02/27 00:54:36;;;;;;;16.87;14.57;;;;;;;;;;5017592;28;20194;-60
2024/02/27 00:57:03;;;;;;;15.90;14.23;;;;;;;;;;5022285;28;20189;-59
2024/02/27 00:59:29;;;;;;;16.23;14.33;;;;;;;;;;5025996;28;20196;-60
2024/02/27 01:01:55;;;;;;;16.03;13.93;;;;;;;;;;5023314;28;20171;-57
2024/02/27 01:04:21;;;;;;;15.57;13.00;;;;;;;;;;5021396;28;20614;-59
2024/02/27 01:06:46;;;;;;;15.43;13.80;;;;;;;;;;5016310;28;20228;-59
2024/02/27 01:09:13;;;;;;;13.80;12.30;;;;;;;;;;5024179;28;20279;-59
2024/02/27 01:11:39;;;;;;;15.90;13.63;;;;;;;;;;5027055;28;20197;-59
2024/02/27 01:14:05;;;;;;;15.53;13.83;;;;;;;;;;5025233;28;20194;-60
2024/02/27 01:16:31;;;;;;;15.53;13.13;;;;;;;;;;5024661;28;20617;-59
2024/02/27 01:18:57;;;;;;;15.13;13.53;;;;;;;;;;5022593;28;20241;-59
2024/02/27 01:21:23;;;;;;;15.43;12.90;;;;;;;;;;5023138;28;20703;-60
2024/02/27 01:23:49;;;;;;;15.80;13.57;;;;;;;;;;5027718;28;20189;-60
2024/02/27 01:26:15;;;;;;;16.27;13.43;;;;;;;;;;5019529;28;20254;-59
2024/02/27 01:28:41;;;;;;;14.33;12.67;;;;;;;;;;5026836;28;20597;-58
2024/02/27 01:31:07;;;;;;;16.80;12.90;;;;;;;;;;5021583;28;20236;-60
2024/02/27 01:33:33;;;;;;;16.77;13.23;;;;;;;;;;5018929;28;20626;-59
2024/02/27 01:35:59;;;;;;;14.80;12.83;;;;;;;;;;5016881;28;20185;-59
2024/02/27 01:38:25;;;;;;;13.83;12.30;;;;;;;;;;5014656;28;20178;-59
2024/02/27 01:40:51;;;;;;;14.53;11.77;;;;;;;;;;5026382;28;20894;-60
2024/02/27 01:43:24;;;;;;;14.07;12.57;;;;;;;;;;5026238;28;20220;-59
2024/02/27 01:46:05;;;;;;;13.40;11.90;;;;;;;;;;5022246;28;20206;-60
2024/02/27 01:48:33;;;;;;;14.77;13.20;;;;;;;;;;5027920;28;20259;-59
2024/02/27 01:50:59;;;;;;;13.97;12.00;;;;;;;;;;5026364;28;20233;-60
2024/02/27 01:53:25;;;;;;;13.80;12.30;;;;;;;;;;5019732;28;20189;-58
2024/02/27 01:55:51;;;;;;;14.50;12.63;;;;;;;;;;5015131;28;20595;-58
2024/02/27 01:58:18;;;;;;;12.57;11.27;;;;;;;;;;5028154;28;20192;-59
2024/02/27 02:00:44;;;;;;;15.85;14.15;;;;;;;;;;5025891;28;20453;-60
2024/02/27 02:03:11;;;;;;;16.53;13.70;;;;;;;;;;5023177;28;20584;-58
2024/02/27 02:05:37;;;;;;;13.53;12.13;;;;;;;;;;5026494;28;20198;-56
2024/02/27 02:08:04;;;;;;;16.00;12.27;;;;;;;;;;5026165;28;20186;-56
2024/02/27 02:10:30;;;;;;;14.30;12.37;;;;;;;;;;5015948;28;20185;-56
2024/02/27 02:12:56;;;;;;;13.70;11.47;;;;;;;;;;5020516;28;20202;-56
2024/02/27 02:15:23;;;;;;;14.47;12.60;;;;;;;;;;5026324;28;20232;-56
2024/02/27 02:17:52;;;;;;;14.73;13.13;;;;;;;;;;5026864;28;20178;-56
2024/02/27 02:20:18;;;;;;;15.57;13.10;;;;;;;;;;5024843;28;20260;-56
2024/02/27 02:22:45;;;;;;;13.20;11.80;;;;;;;;;;5026714;28;20312;-56
2024/02/27 02:25:12;;;;;;;17.20;13.47;;;;;;;;;;5025571;28;20623;-56
2024/02/27 02:27:45;;;;;;;15.83;13.17;;;;;;;;;;5027976;28;20677;-56
2024/02/27 02:30:12;;;;;;;15.00;12.70;;;;;;;;;;5016087;28;20526;-56
2024/02/27 02:32:51;;;;;;;15.20;13.60;;;;;;;;;;5027433;28;20170;-56
2024/02/27 02:35:18;;;;;;;18.23;13.80;;;;;;;;;;5025758;28;20296;-56
2024/02/27 02:37:47;;;;;;;14.97;12.70;;;;;;;;;;5023663;28;20668;-56
2024/02/27 02:40:14;;;;;;;14.23;12.23;;;;;;;;;;5017323;28;20183;-56
2024/02/27 02:42:40;;;;;;;16.37;13.23;;;;;;;;;;5026905;28;20281;-56
2024/02/27 02:45:06;;;;;;;15.33;13.27;;;;;;;;;;5025204;28;20174;-56
2024/02/27 02:47:32;;;;;;;14.80;12.50;;;;;;;;;;5015931;28;20299;-56
2024/02/27 02:49:58;;;;;;;14.07;12.47;;;;;;;;;;5018297;28;20178;-56
2024/02/27 02:52:25;;;;;;;14.77;12.90;;;;;;;;;;5016888;28;20197;-56
2024/02/27 02:54:51;;;;;;;15.13;12.77;;;;;;;;;;5017135;28;20591;-57
2024/02/27 02:57:16;;;;;;;15.13;13.53;;;;;;;;;;5025854;28;20208;-56
2024/02/27 02:59:46;;;;;;;15.40;13.70;;;;;;;;;;5018459;28;20237;-56
2024/02/27 03:02:12;;;;;;;15.37;13.20;;;;;;;;;;5016698;28;20189;-56
2024/02/27 03:04:38;;;;;;;16.47;13.63;;;;;;;;;;5017847;28;20843;-56
2024/02/27 03:07:06;;;;;;;14.77;12.57;;;;;;;;;;5026544;28;20331;-57
2024/02/27 03:09:32;;;;;;;15.63;13.20;;;;;;;;;;5023592;28;20649;-56
2024/02/27 03:12:01;;;;;;;15.53;13.10;;;;;;;;;;5020297;28;20170;-56
2024/02/27 03:14:27;;;;;;;17.57;13.37;;;;;;;;;;5015863;28;20197;-56
2024/02/27 03:16:56;;;;;;;15.30;12.90;;;;;;;;;;5024528;28;20193;-56
2024/02/27 03:19:22;;;;;;;16.83;13.63;;;;;;;;;;5026099;28;20233;-56
2024/02/27 03:21:48;;;;;;;16.93;14.63;;;;;;;;;;5015109;28;20677;-56
2024/02/27 03:24:15;;;;;;;15.67;12.87;;;;;;;;;;5022746;28;20185;-56
2024/02/27 03:26:42;;;;;;;15.67;13.57;;;;;;;;;;5015784;28;20331;-56
2024/02/27 03:29:08;;;;;;;15.83;13.40;;;;;;;;;;5023229;28;20174;-57
2024/02/27 03:31:34;;;;;;;17.07;14.20;;;;;;;;;;5018869;28;20274;-56
2024/02/27 03:34:00;;;;;;;16.10;14.07;;;;;;;;;;5022438;28;20269;-57
2024/02/27 03:36:26;;;;;;;17.97;14.37;;;;;;;;;;5025425;28;20553;-57
2024/02/27 03:38:52;;;;;;;16.87;14.60;;;;;;;;;;5018429;28;20185;-57
2024/02/27 03:41:18;;;;;;;17.33;14.60;;;;;;;;;;5023579;28;20581;-56
2024/02/27 03:43:44;;;;;;;15.70;13.57;;;;;;;;;;5019257;28;20205;-57
2024/02/27 03:46:10;;;;;;;15.30;13.33;;;;;;;;;;5019194;28;20205;-56
2024/02/27 03:48:37;;;;;;;15.87;13.70;;;;;;;;;;5025444;28;20174;-57
2024/02/27 03:51:03;;;;;;;16.63;14.20;;;;;;;;;;5021552;28;20187;-56
2024/02/27 03:53:29;;;;;;;17.50;14.43;;;;;;;;;;5015926;28;20265;-56
2024/02/27 03:55:55;;;;;;;16.40;13.90;;;;;;;;;;5018180;28;20293;-57
2024/02/27 03:58:21;;;;;;;16.77;14.30;;;;;;;;;;5021429;28;20189;-56
2024/02/27 04:00:47;;;;;;;17.27;14.57;;;;;;;;;;5024645;28;20185;-57
2024/02/27 04:03:14;;;;;;;16.90;14.57;;;;;;;;;;5024811;28;20174;-56
2024/02/27 04:05:40;;;;;;;19.00;14.63;;;;;;;;;;5029137;28;20186;-56
2024/02/27 04:08:09;;;;;;;17.07;14.33;;;;;;;;;;5028353;28;20190;-56
2024/02/27 04:10:36;;;;;;;16.53;14.37;;;;;;;;;;5028870;28;20189;-57
2024/02/27 04:13:02;;;;;;;17.33;14.30;;;;;;;;;;5028729;28;20174;-57
2024/02/27 04:15:28;;;;;;;15.03;13.37;;;;;;;;;;5017971;28;20178;-56
2024/02/27 04:17:55;;;;;;;18.50;14.73;;;;;;;;;;5028715;28;20173;-57
2024/02/27 04:20:21;;;;;;;16.97;14.03;;;;;;;;;;5029388;28;20231;-56
2024/02/27 04:22:47;;;;;;;18.73;14.80;;;;;;;;;;5029884;28;20276;-57
2024/02/27 04:25:13;;;;;;;18.43;15.00;;;;;;;;;;5026678;28;20261;-59
2024/02/27 04:27:39;;;;;;;17.73;14.30;;;;;;;;;;5025011;28;20229;-58
2024/02/27 04:30:06;;;;;;;16.93;13.57;;;;;;;;;;5022327;28;20587;-59
2024/02/27 04:32:33;;;;;;;17.67;13.87;;;;;;;;;;5029277;28;20178;-59
2024/02/27 04:34:59;;;;;;;15.33;13.73;;;;;;;;;;5028931;28;20178;-59
2024/02/27 04:37:25;;;;;;;17.40;14.00;;;;;;;;;;5029409;28;20256;-59
2024/02/27 04:39:51;;;;;;;16.70;14.13;;;;;;;;;;5028691;28;20321;-58
2024/02/27 04:42:17;;;;;;;17.37;14.10;;;;;;;;;;5030125;28;20208;-59
2024/02/27 04:44:43;;;;;;;16.47;14.13;;;;;;;;;;5022717;28;20193;-60
2024/02/27 04:47:09;;;;;;;18.20;14.30;;;;;;;;;;5029329;28;20194;-59
2024/02/27 04:49:35;;;;;;;17.67;14.50;;;;;;;;;;5021387;28;20182;-57
2024/02/27 04:52:01;;;;;;;19.20;14.57;;;;;;;;;;5027825;28;20664;-59
2024/02/27 04:54:27;;;;;;;16.43;14.10;;;;;;;;;;5025709;28;20174;-56
2024/02/27 04:56:54;;;;;;;18.87;14.93;;;;;;;;;;5028329;28;20178;-59
2024/02/27 04:59:20;;;;;;;17.23;14.50;;;;;;;;;;5024292;28;20648;-58
2024/02/27 05:01:47;;;;;;;17.87;14.37;;;;;;;;;;5017644;28;20265;-59
2024/02/27 05:04:13;;;;;;;16.17;14.47;;;;;;;;;;5026528;28;20606;-58
2024/02/27 05:06:39;;;;;;;17.90;14.50;;;;;;;;;;5016951;28;20209;-56
2024/02/27 05:09:05;;;;;;;17.47;14.87;;;;;;;;;;5023531;28;20182;-58
2024/02/27 05:11:31;;;;;;;17.30;14.03;;;;;;;;;;5022134;28;20289;-58
2024/02/27 05:13:57;;;;;;;15.70;13.43;;;;;;;;;;5026980;28;20182;-58
2024/02/27 05:16:24;;;;;;;16.17;13.63;;;;;;;;;;5026612;28;20252;-59
2024/02/27 05:18:50;;;;;;;16.83;14.33;;;;;;;;;;5023604;28;20696;-59
2024/02/27 05:21:19;;;;;;;19.07;15.03;;;;;;;;;;5021921;28;20170;-58
2024/02/27 05:23:45;;;;;;;18.63;14.57;;;;;;;;;;5025713;28;20201;-59
2024/02/27 05:26:12;;;;;;;18.07;14.10;;;;;;;;;;5026625;28;20293;-59
2024/02/27 05:28:38;;;;;;;16.77;13.80;;;;;;;;;;5024826;28;20183;-59
2024/02/27 05:31:26;;;;;;;17.70;14.43;;;;;;;;;;5026817;28;20174;-57
2024/02/27 05:33:53;;;;;;;18.17;14.47;;;;;;;;;;5025850;28;20666;-59
2024/02/27 05:36:19;;;;;;;19.10;14.70;;;;;;;;;;5027964;28;20205;-54
2024/02/27 05:38:45;;;;;;;18.23;14.00;;;;;;;;;;5028121;28;20181;-54
2024/02/27 05:41:12;;;;;;;18.07;14.50;;;;;;;;;;5026760;28;20275;-52
2024/02/27 05:43:38;;;;;;;21.00;16.43;;;;;;;;;;5025216;28;20313;-52
2024/02/27 05:46:05;;;;;;;18.23;14.23;;;;;;;;;;5019343;28;20335;-53
2024/02/27 05:48:34;;;;;;;17.67;14.73;;;;;;;;;;5026113;28;20170;-53
2024/02/27 05:51:00;;;;;;;17.17;15.00;;;;;;;;;;5027458;28;20171;-52
2024/02/27 05:53:29;;;;;;;18.57;14.90;;;;;;;;;;5023425;28;20184;-53
2024/02/27 05:55:55;;;;;;;19.30;15.40;;;;;;;;;;5024761;28;20506;-53
2024/02/27 05:58:23;;;;;;;20.03;15.70;;;;;;;;;;5025902;28;20177;-52
2024/02/27 06:00:49;;;;;;;18.93;15.07;;;;;;;;;;5027166;28;20229;-53
2024/02/27 06:03:15;;;;;;;19.50;15.33;;;;;;;;;;5023865;28;20205;-52
2024/02/27 06:05:41;;;;;;;18.63;14.83;;;;;;;;;;5023923;28;20215;-54
2024/02/27 06:08:07;;;;;;;18.50;14.40;;;;;;;;;;5027316;28;20217;-53
2024/02/27 06:10:33;;;;;;;18.07;15.03;;;;;;;;;;5026943;28;20186;-59
2024/02/27 06:12:59;;;;;;;20.00;15.47;;;;;;;;;;5022480;28;20175;-58
2024/02/27 06:15:25;;;;;;;20.70;14.87;;;;;;;;;;5027020;28;20273;-59
2024/02/27 06:17:51;;;;;;;20.03;16.00;;;;;;;;;;5027059;28;20201;-58
2024/02/27 06:23:02;;;;;;;19.07;14.73;;;;;;;;;;5026392;28;20228;-57
2024/02/27 06:25:28;;;;;;;17.17;13.77;;;;;;;;;;5022070;28;20215;-57
2024/02/27 06:27:54;;;;;;;18.50;15.03;;;;;;;;;;5024516;28;20583;-58
2024/02/27 06:30:20;;;;;;;18.00;14.50;;;;;;;;;;5026899;28;20265;-58
2024/02/27 06:32:46;;;;;;;18.40;14.40;;;;;;;;;;5025425;28;20190;-58
2024/02/27 06:35:12;;;;;;;16.03;14.17;;;;;;;;;;5023026;28;20629;-59
2024/02/27 06:37:38;;;;;;;20.67;14.73;;;;;;;;;;5010325;28;20170;-59
2024/02/27 06:40:04;;;;;;;17.10;13.10;;;;;;;;;;5026514;28;20173;-59
2024/02/27 06:42:36;;;;;;;17.80;14.00;;;;;;;;;;5028291;28;20289;-58
2024/02/27 06:45:02;;;;;;;16.90;14.00;;;;;;;;;;5027023;28;20192;-58
2024/02/27 06:47:28;;;;;;;16.60;13.77;;;;;;;;;;5027587;28;20210;-53
2024/02/27 06:49:56;;;;;;;16.30;13.73;;;;;;;;;;5028105;28;20178;-53
2024/02/27 06:52:22;;;;;;;19.93;14.70;;;;;;;;;;5028371;28;20486;-53
2024/02/27 06:54:48;;;;;;;17.30;14.03;;;;;;;;;;5026927;28;20231;-53
2024/02/27 06:57:14;;;;;;;16.43;13.90;;;;;;;;;;5039821;28;20224;-53
2024/02/27 06:59:40;;;;;;;16.73;13.63;;;;;;;;;;5019814;28;20169;-53
2024/02/27 07:02:06;;;;;;;15.90;13.33;;;;;;;;;;5019539;28;20185;-53
2024/02/27 07:04:33;;;;;;;19.37;15.07;;;;;;;;;;5027214;28;20212;-54
2024/02/27 07:07:00;;;;;;;17.73;14.03;;;;;;;;;;5027882;28;20202;-54
2024/02/27 07:09:26;;;;;;;15.80;13.67;;;;;;;;;;5027680;28;20231;-55
2024/02/27 07:11:52;;;;;;;16.67;14.30;;;;;;;;;;5027677;28;20616;-52
2024/02/27 07:14:18;;;;;;;18.53;14.23;;;;;;;;;;5026461;28;20185;-52
2024/02/27 07:16:44;;;;;;;15.23;13.17;;;;;;;;;;5023542;28;20619;-53
2024/02/27 07:19:10;;;;;;;20.07;13.70;;;;;;;;;;5025299;28;20727;-56
2024/02/27 07:21:36;;;;;;;18.20;13.67;;;;;;;;;;5008885;28;20174;-57
2024/02/27 07:24:02;;;;;;;16.87;12.83;;;;;;;;;;5010328;28;20197;-53
2024/02/27 07:26:28;;;;;;;16.03;12.80;;;;;;;;;;5023858;28;21712;-53
2024/02/27 07:28:54;;;;;;;15.70;12.80;;;;;;;;;;5023254;28;20272;-53
2024/02/27 07:31:21;;;;;;;17.20;13.97;;;;;;;;;;5026142;28;20182;-52
2024/02/27 07:33:47;;;;;;;16.97;13.47;;;;;;;;;;5018007;28;20235;-55
2024/02/27 07:36:13;;;;;;;16.10;12.93;;;;;;;;;;5025258;28;20165;-52
2024/02/27 07:38:40;;;;;;;18.00;13.80;;;;;;;;;;5023924;28;20265;-53
2024/02/27 07:41:06;;;;;;;17.70;14.53;;;;;;;;;;5030106;28;20479;-53
2024/02/27 07:43:32;;;;;;;17.73;13.60;;;;;;;;;;5025580;28;20210;-53
2024/02/27 07:45:58;;;;;;;16.17;13.23;;;;;;;;;;5026536;28;20213;-54
2024/02/27 07:48:24;;;;;;;16.33;13.63;;;;;;;;;;5021631;28;20844;-53
2024/02/27 07:50:53;;;;;;;18.03;14.27;;;;;;;;;;5026462;28;20189;-54
2024/02/27 07:53:19;;;;;;;17.17;13.60;;;;;;;;;;5024747;28;20859;-54
2024/02/27 07:55:45;;;;;;;17.37;14.43;;;;;;;;;;5026132;28;20331;-53
2024/02/27 07:58:12;;;;;;;17.67;13.87;;;;;;;;;;5017061;28;20167;-58
2024/02/27 08:00:38;;;;;;;16.03;12.80;;;;;;;;;;5019619;28;20638;-58
2024/02/27 08:03:07;;;;;;;18.27;14.40;;;;;;;;;;5018564;28;20320;-59
2024/02/27 08:05:33;;;;;;;16.40;13.90;;;;;;;;;;5015592;28;20187;-58
2024/02/27 08:07:59;;;;;;;15.60;12.50;;;;;;;;;;5014802;28;20192;-58
2024/02/27 08:10:26;;;;;;;16.57;13.20;;;;;;;;;;5029734;28;20630;-58
2024/02/27 08:12:52;;;;;;;17.70;13.27;;;;;;;;;;5029785;28;20606;-58
2024/02/27 08:15:18;;;;;;;18.63;14.27;;;;;;;;;;5018558;28;20480;-58
2024/02/27 08:17:44;;;;;;;16.63;13.40;;;;;;;;;;5022417;28;20324;-59
2024/02/27 08:20:12;;;;;;;16.57;13.63;;;;;;;;;;5019909;28;20307;-58
2024/02/27 08:22:38;;;;;;;18.10;14.40;;;;;;;;;;5024416;28;20209;-58
2024/02/27 08:25:04;;;;;;;16.93;13.63;;;;;;;;;;5020218;28;20608;-59
2024/02/27 08:27:30;;;;;;;16.67;13.43;;;;;;;;;;5030119;28;20355;-58
2024/02/27 08:29:57;;;;;;;18.37;14.73;;;;;;;;;;5019616;28;20190;-58
2024/02/27 08:32:24;;;;;;;19.57;15.13;;;;;;;;;;5022389;28;20698;-59
2024/02/27 08:34:50;;;;;;;18.03;14.67;;;;;;;;;;5026091;28;20190;-57
2024/02/27 08:37:16;;;;;;;18.80;14.90;;;;;;;;;;5027003;28;20558;-58
2024/02/27 08:39:42;;;;;;;18.37;15.17;;;;;;;;;;5025144;28;20170;-59
2024/02/27 08:42:08;;;;;;;20.17;15.40;;;;;;;;;;5024547;28;20229;-59
2024/02/27 08:44:34;;;;;;;18.53;14.77;;;;;;;;;;5024705;28;20260;-59
2024/02/27 08:47:02;;;;;;;19.47;14.87;;;;;;;;;;5022951;28;20241;-57
2024/02/27 08:49:28;;;;;;;17.87;15.20;;;;;;;;;;5018022;28;20669;-58
2024/02/27 08:51:54;;;;;;;18.73;15.10;;;;;;;;;;5021126;28;20729;-59
2024/02/27 08:54:20;;;;;;;18.17;15.87;;;;;;;;;;5022766;28;20268;-57
2024/02/27 08:56:46;;;;;;;17.47;14.33;;;;;;;;;;5021898;28;20185;-58
2024/02/27 08:59:12;;;;;;;20.20;14.93;;;;;;;;;;5023609;28;20162;-57
2024/02/27 09:01:38;;;;;;;19.17;15.93;;;;;;;;;;5025975;28;20186;-58
2024/02/27 09:04:04;;;;;;;18.57;15.37;;;;;;;;;;5026495;28;20190;-58
2024/02/27 09:06:30;;;;;;;20.37;16.20;;;;;;;;;;5024778;28;20197;-57
2024/02/27 09:08:56;;;;;;;18.73;15.43;;;;;;;;;;5023969;28;20650;-54
2024/02/27 09:11:22;;;;;;;19.10;15.97;;;;;;;;;;5025058;28;20171;-54
2024/02/27 09:13:48;;;;;;;20.73;18.23;;;;;;;;;;5025964;28;20177;-56
2024/02/27 09:16:14;;;;;;;18.67;15.03;;;;;;;;;;5022366;28;20638;-56
2024/02/27 09:18:43;;;;;;;20.23;16.43;;;;;;;;;;5024783;28;20594;-56
2024/02/27 09:21:10;;;;;;;21.00;15.63;;;;;;;;;;5023824;28;20165;-55
2024/02/27 09:23:36;;;;;;;20.27;16.43;;;;;;;;;;5016695;28;21545;-56
2024/02/27 09:26:02;;;;;;;18.90;15.97;;;;;;;;;;5019765;28;20230;-55
2024/02/27 09:28:28;;;;;;;20.60;16.47;;;;;;;;;;5027764;28;20184;-54
2024/02/27 09:30:54;;;;;;;20.60;16.67;;;;;;;;;;5021098;28;20228;-55
2024/02/27 09:33:20;;;;;;;20.47;16.43;;;;;;;;;;5018926;28;20178;-55
2024/02/27 09:35:46;;;;;;;19.60;15.77;;;;;;;;;;5020239;28;20531;-56
2024/02/27 09:38:12;;;;;;;20.43;16.10;;;;;;;;;;5021851;28;20571;-55
2024/02/27 09:40:38;;;;;;;22.67;16.80;;;;;;;;;;5023080;28;20178;-55
2024/02/27 09:43:07;;;;;;;20.23;16.57;;;;;;;;;;5026723;28;20746;-57
2024/02/27 09:45:33;;;;;;;18.43;15.10;;;;;;;;;;5027217;28;20361;-55
2024/02/27 09:48:01;;;;;;;20.27;16.70;;;;;;;;;;5022043;28;20765;-55
2024/02/27 09:50:28;;;;;;;20.47;16.07;;;;;;;;;;5020471;28;20777;-54
2024/02/27 09:52:55;;;;;;;19.30;15.53;;;;;;;;;;5019905;28;20186;-56
2024/02/27 09:55:22;;;;;;;21.67;15.30;;;;;;;;;;5019754;28;20221;-55
2024/02/27 09:57:48;;;;;;;20.63;15.93;;;;;;;;;;5021629;28;20225;-55
2024/02/27 10:00:18;;;;;;;18.63;14.87;;;;;;;;;;5020676;28;20184;-56
2024/02/27 10:02:49;;;;;;;18.80;14.93;;;;;;;;;;5017119;28;20185;-55
2024/02/27 10:05:17;;;;;;;17.53;14.63;;;;;;;;;;5020440;28;20600;-56
2024/02/27 10:07:46;;;;;;;19.53;15.37;;;;;;;;;;5024069;28;20209;-55
2024/02/27 10:10:12;;;;;;;20.63;15.80;;;;;;;;;;5019451;28;20573;-56
2024/02/27 10:12:39;;;;;;;20.77;15.57;;;;;;;;;;5021037;28;20248;-54
2024/02/27 10:15:05;;;;;;;19.50;16.23;;;;;;;;;;5020185;28;20174;-56
2024/02/27 10:17:33;;;;;;;19.43;15.97;;;;;;;;;;5023022;28;20170;-57
2024/02/27 10:20:04;;;;;;;20.13;16.33;;;;;;;;;;5019776;28;20650;-57
2024/02/27 10:22:31;;;;;;;20.60;16.20;;;;;;;;;;5024076;28;20181;-57
2024/02/27 10:25:10;;;;;;;18.60;15.83;;;;;;;;;;5020009;28;20193;-57
2024/02/27 10:27:37;;;;;;;21.93;17.37;;;;;;;;;;5017353;28;20205;-57
2024/02/27 10:30:03;;;;;;;18.80;16.00;;;;;;;;;;5020485;28;20170;-57
2024/02/27 10:32:33;;;;;;;19.93;16.60;;;;;;;;;;5020684;28;20194;-57
2024/02/27 10:34:59;;;;;;;19.70;15.57;;;;;;;;;;5017129;28;20190;-57
2024/02/27 10:37:28;;;;;;;17.00;14.77;;;;;;;;;;5023989;28;20221;-58
2024/02/27 10:39:56;;;;;;;19.90;16.23;;;;;;;;;;5024121;28;20261;-57
2024/02/27 10:42:23;;;;;;;19.07;15.20;;;;;;;;;;5018228;28;20264;-57
2024/02/27 10:44:49;;;;;;;18.07;16.17;;;;;;;;;;5023030;28;20513;-57
2024/02/27 10:47:18;;;;;;;20.53;16.40;;;;;;;;;;5020874;28;20592;-57
2024/02/27 10:49:44;;;;;;;22.47;17.03;;;;;;;;;;5025427;28;20182;-57
2024/02/27 10:52:10;;;;;;;20.43;16.53;;;;;;;;;;5019771;28;20176;-57
2024/02/27 10:54:36;;;;;;;19.67;16.30;;;;;;;;;;5017927;28;20193;-57
2024/02/27 10:57:02;;;;;;;20.33;16.07;;;;;;;;;;5025907;28;20269;-57
2024/02/27 10:59:31;;;;;;;20.27;16.83;;;;;;;;;;5024304;28;20277;-57
2024/02/27 11:02:00;;;;;;;18.93;15.93;;;;;;;;;;5024280;28;20174;-57
2024/02/27 11:04:29;;;;;;;21.10;17.10;;;;;;;;;;5022075;28;20201;-57
2024/02/27 11:06:58;;;;;;;17.67;15.37;;;;;;;;;;5023539;28;20506;-57
2024/02/27 11:09:26;;;;;;;19.03;16.67;;;;;;;;;;5029704;28;20189;-57
2024/02/27 11:11:55;;;;;;;17.67;15.30;;;;;;;;;;5029892;28;20638;-57
2024/02/27 11:14:24;;;;;;;18.57;15.90;;;;;;;;;;5028509;28;20177;-57
2024/02/27 11:16:52;;;;;;;18.33;15.60;;;;;;;;;;5021062;28;20186;-57
2024/02/27 11:19:21;;;;;;;19.33;16.13;;;;;;;;;;5025527;28;20283;-57
2024/02/27 11:21:48;;;;;;;18.87;15.37;;;;;;;;;;5019432;28;20201;-58
2024/02/27 11:24:15;;;;;;;20.87;16.93;;;;;;;;;;5026867;28;20228;-57
2024/02/27 11:26:41;;;;;;;19.47;15.90;;;;;;;;;;5019506;28;20197;-57
2024/02/27 11:29:08;;;;;;;19.33;16.17;;;;;;;;;;5014615;28;20159;-59
2024/02/27 11:31:34;;;;;;;19.23;16.33;;;;;;;;;;5024617;28;20178;-58
2024/02/27 11:34:01;;;;;;;19.60;16.57;;;;;;;;;;5020223;28;20205;-59
2024/02/27 11:36:28;;;;;;;19.77;16.07;;;;;;;;;;5021334;28;20183;-58
2024/02/27 11:38:54;;;;;;;18.07;15.17;;;;;;;;;;5026985;28;20220;-58
2024/02/27 11:41:23;;;;;;;18.30;15.87;;;;;;;;;;5017608;28;20210;-58
2024/02/27 11:43:50;;;;;;;19.13;16.80;;;;;;;;;;5023335;28;20223;-59
2024/02/27 11:46:31;;;;;;;20.47;17.20;;;;;;;;;;5029063;28;20553;-58
2024/02/27 11:49:01;;;;;;;22.10;18.43;;;;;;;;;;5021607;28;20173;-59
2024/02/27 11:51:32;;;;;;;20.30;16.73;;;;;;;;;;5027759;28;20818;-58
2024/02/27 11:53:58;;;;;;;19.47;17.27;;;;;;;;;;5026045;28;20669;-57
2024/02/27 11:56:25;;;;;;;20.90;17.60;;;;;;;;;;5029910;28;20182;-59
2024/02/27 11:58:54;;;;;;;18.93;16.03;;;;;;;;;;5023493;28;20190;-59
2024/02/27 12:01:23;;;;;;;19.77;17.30;;;;;;;;;;5028486;28;20178;-58
2024/02/27 12:03:50;;;;;;;20.53;17.43;;;;;;;;;;5028645;28;20641;-58
2024/02/27 12:06:16;;;;;;;21.30;17.80;;;;;;;;;;5025952;28;20729;-58
2024/02/27 12:08:49;;;;;;;21.47;18.10;;;;;;;;;;5021982;28;20155;-59
2024/02/27 12:11:16;;;;;;;19.33;16.73;;;;;;;;;;5022427;28;20638;-57
2024/02/27 12:13:46;;;;;;;20.83;18.43;;;;;;;;;;5025581;28;20250;-58
2024/02/27 12:16:21;;;;;;;20.67;17.60;;;;;;;;;;5022265;28;20734;-58
2024/02/27 12:18:47;;;;;;;17.73;15.83;;;;;;;;;;5027869;28;20696;-57
2024/02/27 12:21:13;;;;;;;20.33;17.03;;;;;;;;;;5029656;28;20182;-58
2024/02/27 12:23:40;;;;;;;20.53;17.67;;;;;;;;;;5023685;28;20174;-58
2024/02/27 12:26:06;;;;;;;18.90;16.83;;;;;;;;;;5020036;28;20202;-58
2024/02/27 12:28:32;;;;;;;17.90;16.00;;;;;;;;;;5023583;28;20175;-58
2024/02/27 12:30:58;;;;;;;18.67;16.77;;;;;;;;;;5019493;28;20198;-57
2024/02/27 12:33:25;;;;;;;18.50;16.50;;;;;;;;;;5025584;28;20182;-58
2024/02/27 12:35:51;;;;;;;18.77;15.83;;;;;;;;;;5020537;28;20883;-60
2024/02/27 12:38:17;;;;;;;17.23;15.33;;;;;;;;;;5030173;28;20297;-53
2024/02/27 12:40:43;;;;;;;16.80;14.30;;;;;;;;;;5019554;28;20171;-52
2024/02/27 12:43:09;;;;;;;18.13;16.23;;;;;;;;;;5019095;28;20276;-54
2024/02/27 12:45:35;;;;;;;19.37;16.87;;;;;;;;;;5025021;28;20533;-53
2024/02/27 12:48:03;;;;;;;18.97;16.40;;;;;;;;;;5029563;28;20207;-55
2024/02/27 12:50:29;;;;;;;18.83;16.57;;;;;;;;;;5026125;28;20575;-54
2024/02/27 12:52:58;;;;;;;18.97;16.60;;;;;;;;;;5021655;28;20182;-55
2024/02/27 12:55:25;;;;;;;18.50;16.43;;;;;;;;;;5024046;28;20182;-54
2024/02/27 12:57:55;;;;;;;17.90;16.03;;;;;;;;;;5023285;28;20178;-53
2024/02/27 13:00:25;;;;;;;20.07;17.83;;;;;;;;;;5018213;28;20711;-55
2024/02/27 13:02:55;;;;;;;18.07;16.17;;;;;;;;;;5023361;28;20204;-53
2024/02/27 13:05:22;;;;;;;17.13;15.20;;;;;;;;;;5026767;28;20239;-54
2024/02/27 13:07:49;;;;;;;18.97;16.33;;;;;;;;;;5020234;28;20713;-53
2024/02/27 13:10:19;;;;;;;16.60;14.87;;;;;;;;;;5025941;28;20170;-54
2024/02/27 13:12:45;;;;;;;15.83;14.13;;;;;;;;;;5022011;28;20175;-54
2024/02/27 13:15:11;;;;;;;16.67;14.87;;;;;;;;;;5023499;28;20313;-54
2024/02/27 13:17:37;;;;;;;15.50;13.93;;;;;;;;;;5027018;28;20807;-54
2024/02/27 13:20:03;;;;;;;14.80;13.27;;;;;;;;;;5026859;28;20714;-54
2024/02/27 13:22:29;;;;;;;13.87;12.43;;;;;;;;;;5030348;28;20867;-53
2024/02/27 13:24:56;;;;;;;14.27;12.77;;;;;;;;;;5030796;28;20174;-53
2024/02/27 13:27:22;;;;;;;18.17;13.23;;;;;;;;;;5017206;28;20205;-52
2024/02/27 13:29:48;;;;;;;15.90;12.70;;;;;;;;;;5029797;28;20235;-53
2024/02/27 13:32:14;;;;;;;14.53;12.93;;;;;;;;;;5023201;28;20538;-53
2024/02/27 13:34:40;;;;;;;13.97;12.10;;;;;;;;;;5020627;28;20249;-55
2024/02/27 13:37:06;;;;;;;13.77;12.37;;;;;;;;;;5026570;28;20178;-57
2024/02/27 13:39:32;;;;;;;14.50;12.30;;;;;;;;;;5027158;28;20185;-55
2024/02/27 13:42:02;;;;;;;13.73;12.32;;;;;;;;;;5025528;28;20458;-55
2024/02/27 13:44:28;;;;;;;14.00;11.77;;;;;;;;;;5025293;28;20193;-53
2024/02/27 13:46:54;;;;;;;13.33;11.93;;;;;;;;;;5022678;28;20324;-53
2024/02/27 13:49:21;;;;;;;12.47;11.17;;;;;;;;;;5021991;28;20543;-53
2024/02/27 13:51:47;;;;;;;13.00;11.60;;;;;;;;;;5025151;28;20622;-53
2024/02/27 13:54:14;;;;;;;12.33;11.13;;;;;;;;;;5027005;28;20170;-53
2024/02/27 13:56:40;;;;;;;11.97;10.77;;;;;;;;;;5025272;28;20189;-54
2024/02/27 13:59:06;;;;;;;11.53;9.73;;;;;;;;;;5024908;28;20228;-58
2024/02/27 14:01:35;;;;;;;12.03;10.47;;;;;;;;;;5025501;28;20310;-59
2024/02/27 14:04:01;;;;;;;11.27;10.17;;;;;;;;;;5027496;28;20261;-58
2024/02/27 14:06:27;;;;;;;12.47;10.30;;;;;;;;;;5026837;28;20201;-57
2024/02/27 14:08:53;;;;;;;12.10;10.90;;;;;;;;;;5027031;28;20209;-52
2024/02/27 14:11:20;;;;;;;11.63;10.47;;;;;;;;;;5021099;28;20273;-53
2024/02/27 14:13:46;;;;;;;11.17;9.97;;;;;;;;;;5026356;28;20182;-54
2024/02/27 14:16:12;;;;;;;11.60;10.47;;;;;;;;;;5020080;28;20185;-54